Kenton, Michigan
Current Conditions -  °F | °C
As of 11:55 AM on Wednesday 22 Oct 2014 (Local Time) from KLNL Reporting Station
Clear Clear  
Wind Chill: 39°   Ceiling: Unl
Heat Index: 43°   Visibility: 10mi
Dew Point: 36°   Wind: 7mph
Humidity: 76%   Direction: 160°SSE
Pressure: 30.32"   Gusts: NA
Location:  46.49°N, 88.89°W
Report Text: KLNL 221555Z AUTO 16006KT 10SM CLR 06/02 A3032 RMK AO2 T00600021
Loading
Personal Weather Stations






























Interactive Weather Map
Tropical Storm Tracking
New forecast layout! Learn more

10-Day Weather Forecast

Advertisements
Track Severe Weather on mobile